Provisional Data: Susquehanna River near Columbia, PA


Please select a monitoring station.
Please select start date.
Please select start date.

Toggle Unit: C/F Toggle Unit: C/F
Sample Time Temperature (C) Temperature (F) Specific Conductivity (mS/cm) pH   Turbidity (NTU+) DO (mg/L)
1/5/2022 12:00:00 AM 3.689444 38.641 8.074 6.5
1/5/2022 12:15:00 AM 3.632779 38.539 8.074 6.45
1/5/2022 12:30:00 AM 3.613889 38.505 8.068 6.45
1/5/2022 12:45:00 AM 3.595 38.471 8.065 6.4
1/5/2022 1:00:00 AM 3.538333 38.369 8.061 6.45
1/5/2022 1:15:00 AM 3.623333 38.522 8.056 6.35
1/5/2022 1:30:00 AM 3.623333 38.522 8.047 6.3
1/5/2022 1:45:00 AM 3.595 38.471 8.049 6.35
1/5/2022 2:00:00 AM 3.595 38.471 8.047 6.2
1/5/2022 2:15:00 AM 3.576111 38.437 8.046 6.25
1/5/2022 2:30:00 AM 3.613889 38.505 8.043 6.6
1/5/2022 2:45:00 AM 3.642222 38.556 8.039 6.15
1/5/2022 3:00:00 AM 3.670555 38.607 8.033 6.2
1/5/2022 3:15:00 AM 3.689444 38.641 8.035 6.1
1/5/2022 3:30:00 AM 3.85 38.93 8.025 6.1
1/5/2022 3:45:00 AM 3.878333 38.981 8.025 6.05
1/5/2022 4:00:00 AM 3.746111 38.743 8.025 6.1
1/5/2022 4:15:00 AM 3.783889 38.811 8.025 6.05
1/5/2022 4:30:00 AM 3.906667 39.032 8.018 6.1
1/5/2022 4:45:00 AM 3.802778 38.845 8.021 6
1/5/2022 5:00:00 AM 3.765 38.777 8.023 6
1/5/2022 5:15:00 AM 3.821668 38.879 8.022 5.95
1/5/2022 5:30:00 AM 3.840554 38.913 8.019 5.95
1/5/2022 5:45:00 AM 3.840554 38.913 8.018 6.1
1/5/2022 6:00:00 AM 3.802778 38.845 8.018 6
1/5/2022 6:15:00 AM 3.698889 38.658 8.026 5.95
1/5/2022 6:30:00 AM 3.698889 38.658 8.026 5.95
1/5/2022 6:45:00 AM 3.717778 38.692 8.025 5.9
1/5/2022 7:00:00 AM 3.765 38.777 8.022 6
1/5/2022 7:15:00 AM 3.793333 38.828 8.023 5.85
1/5/2022 7:30:00 AM 3.765 38.777 8.019 5.95
1/5/2022 7:45:00 AM 3.831111 38.896 8.018 7.2
1/5/2022 8:00:00 AM 4.029444 39.253 8.012 7.05
1/5/2022 8:15:00 AM 4.067222 39.321 8.005 7.05
1/5/2022 8:30:00 AM 4.133333 39.44 8.001 7.05
1/5/2022 8:45:00 AM 3.925557 39.066 8.012 7.05
1/5/2022 9:00:00 AM 3.935 39.083 8.012 7.05
1/5/2022 9:15:00 AM 3.783889 38.811 8.025 6.65
1/5/2022 9:30:00 AM 3.821668 38.879 8.029 6.5
1/5/2022 9:45:00 AM 3.765 38.777 8.036 6.55
1/5/2022 10:00:00 AM 3.746111 38.743 8.04 6.45
1/5/2022 10:15:00 AM 3.746111 38.743 8.044 6.45
1/5/2022 10:30:00 AM 3.831111 38.896 8.04 6.7
1/5/2022 10:45:00 AM 3.887778 38.998 8.047 6.35
1/5/2022 11:00:00 AM 3.878333 38.981 8.047 6.3
1/5/2022 11:15:00 AM 3.868889 38.964 8.05 6.3
1/5/2022 11:30:00 AM 3.85 38.93 8.056 6.2
1/5/2022 11:45:00 AM 3.840554 38.913 8.063 6.2
1/12/2022 12:00:00 AM 3.868889 38.964 7.867 4.25
1/12/2022 12:15:00 AM 3.802778 38.845 7.868 4.1
1/12/2022 12:30:00 AM 3.727222 38.709 7.865 4.2
1/12/2022 12:45:00 AM 3.576111 38.437 7.878 4
1/12/2022 1:00:00 AM 3.651668 38.573 7.871 3.95
1/12/2022 1:15:00 AM 3.708333 38.675 7.862 3.9
1/12/2022 1:30:00 AM 3.623333 38.522 7.862 3.95
1/12/2022 1:45:00 AM 3.566666 38.42 7.867 3.8
1/12/2022 2:00:00 AM 3.52889 38.352 7.865 3.8
1/12/2022 2:15:00 AM 3.387222 38.097 7.871 3.8
1/12/2022 2:30:00 AM 3.406111 38.131 7.868 3.8
1/12/2022 2:45:00 AM 3.462779 38.233 7.861 3.75
1/12/2022 3:00:00 AM 3.51 38.318 7.854 3.75
1/12/2022 3:15:00 AM 3.472222 38.25 7.854 3.7
1/12/2022 3:30:00 AM 3.415555 38.148 7.85 3.75
1/12/2022 3:45:00 AM 3.321111 37.978 7.847 3.7
1/12/2022 4:00:00 AM 3.226666 37.808 7.855 3.65
1/12/2022 4:15:00 AM 3.264444 37.876 7.851 3.65
1/12/2022 4:30:00 AM 3.311666 37.961 7.843 3.6
1/12/2022 4:45:00 AM 3.27389 37.893 7.84 3.55
1/12/2022 5:00:00 AM 3.255001 37.859 7.84 3.6
1/12/2022 5:15:00 AM 3.264444 37.876 7.83 3.75
1/12/2022 5:30:00 AM 3.236112 37.825 7.834 3.65
1/12/2022 5:45:00 AM 3.35889 38.046 7.82 3.6
1/12/2022 6:00:00 AM 3.396666 38.114 7.811 3.6
1/12/2022 6:15:00 AM 3.349444 38.029 7.811 3.55
1/12/2022 6:30:00 AM 3.302222 37.944 7.809 3.6
1/12/2022 6:45:00 AM 3.236112 37.825 7.811 3.6
1/12/2022 7:00:00 AM 3.10389 37.587 7.815 3.7
1/12/2022 7:15:00 AM 3.047223 37.485 7.825 3.6
1/12/2022 7:30:00 AM 3.151112 37.672 7.815 3.6
1/12/2022 7:45:00 AM 3.141666 37.655 7.822 3.55
1/12/2022 8:00:00 AM 3.113333 37.604 7.827 3.6
1/12/2022 8:15:00 AM 3.122777 37.621 7.823 3.55
1/12/2022 8:30:00 AM 3.113333 37.604 7.825 3.6
1/12/2022 8:45:00 AM 2.962223 37.332 7.841 3.5
1/12/2022 9:00:00 AM 3.000001 37.4 7.841 3.55
1/12/2022 9:15:00 AM 2.971666 37.349 7.857 3.5
1/12/2022 9:30:00 AM 2.896112 37.213 7.869 3.5
1/12/2022 9:45:00 AM 2.792223 37.026 7.883 3.5
1/12/2022 10:00:00 AM 2.792223 37.026 7.895 3.55
1/12/2022 10:15:00 AM 2.782777 37.009 7.904 3.55
1/12/2022 10:30:00 AM 2.754445 36.958 7.904 3.5
1/12/2022 10:45:00 AM 2.754445 36.958 7.92 3.5
1/12/2022 11:00:00 AM 2.641112 36.754 7.93 3.45
1/12/2022 11:15:00 AM 2.584445 36.652 7.941 3.45
1/12/2022 11:30:00 AM 2.461667 36.431 7.958 3.45
1/12/2022 11:45:00 AM 2.376667 36.278 7.97 3.45
1/12/2022 12:00:00 PM 2.357778 36.244 7.976 3.45
1/12/2022 12:15:00 PM 2.329445 36.193 7.991 3.45
1/12/2022 12:30:00 PM 2.291667 36.125 7.997 3.5
1/12/2022 12:45:00 PM 2.404999 36.329 8.002 3.5
1/12/2022 1:00:00 PM 2.565556 36.618 8.007 3.5
1/12/2022 1:15:00 PM 2.622223 36.72 8.009 3.5
1/12/2022 1:30:00 PM 2.688334 36.839 8.005 3.45
1/12/2022 1:45:00 PM 2.659999 36.788 8.018 3.45
1/12/2022 2:00:00 PM 2.735555 36.924 8.022 3.4
1/12/2022 2:15:00 PM 2.650556 36.771 8.023 3.55
1/12/2022 2:30:00 PM 2.697777 36.856 8.036 3.5
1/12/2022 2:45:00 PM 2.726112 36.907 8.036 3.5
1/12/2022 3:00:00 PM 2.726112 36.907 8.039 3.45
1/12/2022 3:15:00 PM 2.659999 36.788 8.049 3.45
1/12/2022 3:30:00 PM 2.641112 36.754 8.056 3.45
1/12/2022 3:45:00 PM 2.612777 36.703 8.061 3.45
1/12/2022 4:00:00 PM 2.707223 36.873 8.065 3.5
1/12/2022 4:15:00 PM 2.924444 37.264 8.057 3.45
1/12/2022 4:30:00 PM 2.933888 37.281 8.049 3.45
1/12/2022 4:45:00 PM 2.830001 37.094 8.06 3.45
1/12/2022 5:00:00 PM 2.735555 36.924 8.065 3.45
1/12/2022 5:15:00 PM 2.688334 36.839 8.068 3.4
1/12/2022 5:30:00 PM 2.678888 36.822 8.064 3.5
1/12/2022 5:45:00 PM 2.726112 36.907 8.063 3.45
1/12/2022 6:00:00 PM 2.811112 37.06 8.046 3.5
1/12/2022 6:15:00 PM 2.820555 37.077 8.047 3.5
1/12/2022 6:30:00 PM 2.773334 36.992 8.04 3.55
1/12/2022 6:45:00 PM 2.773334 36.992 8.037 3.5
1/12/2022 7:00:00 PM 2.792223 37.026 8.033 3.6
1/12/2022 7:15:00 PM 2.773334 36.992 8.04 3.45
1/12/2022 7:30:00 PM 2.886666 37.196 8.028 3.45
1/12/2022 7:45:00 PM 2.877223 37.179 8.033 3.45
1/12/2022 8:00:00 PM 2.867777 37.162 8.033 3.45
1/12/2022 8:15:00 PM 2.867777 37.162 8.035 3.5
1/12/2022 8:30:00 PM 2.830001 37.094 8.039 3.5
1/12/2022 8:45:00 PM 2.801666 37.043 8.035 3.45
1/12/2022 9:00:00 PM 2.905555 37.23 8.025 3.5
1/12/2022 9:15:00 PM 2.924444 37.264 8.028 3.5
1/12/2022 9:30:00 PM 2.886666 37.196 8.03 3.55
1/12/2022 9:45:00 PM 2.933888 37.281 8.026 3.5
1/12/2022 10:00:00 PM 2.943334 37.298 8.025 3.55
1/12/2022 10:15:00 PM 2.933888 37.281 8.021 3.65
1/12/2022 10:30:00 PM 2.905555 37.23 8.022 3.6
1/12/2022 10:45:00 PM 3.028333 37.451 8.025 3.65
1/12/2022 11:00:00 PM 3.075555 37.536 8.022 3.65
1/12/2022 11:15:00 PM 3.255001 37.859 8.009 3.65
1/12/2022 11:30:00 PM 3.141666 37.655 8.005 3.6
1/13/2022 12:00:00 AM 3.028333 37.451 7.991 3.65
1/13/2022 12:15:00 AM 3.075555 37.536 7.991 3.7
1/13/2022 12:30:00 AM 3.028333 37.451 7.986 3.7
1/13/2022 12:45:00 AM 3.226666 37.808 7.969 3.65
1/13/2022 1:00:00 AM 3.387222 38.097 7.951 3.7
1/13/2022 1:15:00 AM 3.217222 37.791 7.948 3.7
1/13/2022 1:30:00 AM 3.18889 37.74 7.938 3.75
1/13/2022 1:45:00 AM 3.094444 37.57 7.942 3.7
1/13/2022 2:00:00 AM 3.141666 37.655 7.934 3.8
1/13/2022 2:15:00 AM 3.132222 37.638 7.927 3.8
1/13/2022 2:30:00 AM 3.085001 37.553 7.925 3.8
1/13/2022 2:45:00 AM 3.094444 37.57 7.921 3.9
1/13/2022 3:00:00 AM 3.085001 37.553 7.911 4.05
1/13/2022 3:15:00 AM 3.028333 37.451 7.92 3.85
1/13/2022 3:30:00 AM 3.094444 37.57 7.913 3.95
1/13/2022 3:45:00 AM 3.094444 37.57 7.904 3.95
1/13/2022 4:00:00 AM 3.10389 37.587 7.904 3.95
1/13/2022 4:15:00 AM 3.132222 37.638 7.899 4
1/13/2022 4:30:00 AM 3.198333 37.757 7.886 4.15
1/13/2022 4:45:00 AM 3.094444 37.57 7.89 4.25
1/13/2022 5:00:00 AM 3.10389 37.587 7.895 4.5
1/13/2022 5:15:00 AM 3.151112 37.672 7.886 4.8
1/13/2022 5:30:00 AM 3.151112 37.672 7.885 5.05
1/13/2022 5:45:00 AM 3.170001 37.706 7.883 5
1/13/2022 6:00:00 AM 3.217222 37.791 7.878 5.05
1/13/2022 6:15:00 AM 3.198333 37.757 7.875 5.05
1/13/2022 6:30:00 AM 3.075555 37.536 7.888 4.95
1/13/2022 6:45:00 AM 3.122777 37.621 7.886 5
1/13/2022 7:00:00 AM 3.066112 37.519 7.889 5
1/13/2022 7:15:00 AM 3.151112 37.672 7.89 5.1
1/13/2022 7:30:00 AM 3.27389 37.893 7.881 5.1
1/13/2022 7:45:00 AM 3.283333 37.91 7.879 5.25
1/13/2022 8:00:00 AM 3.292777 37.927 7.875 5.35
1/13/2022 8:15:00 AM 3.283333 37.91 7.869 5.5
1/13/2022 8:30:00 AM 3.255001 37.859 7.871 5.75
1/13/2022 8:45:00 AM 3.170001 37.706 7.881 5.8
1/13/2022 9:00:00 AM 3.292777 37.927 7.876 6
1/13/2022 9:15:00 AM 3.368333 38.063 7.875 6.1
1/13/2022 9:30:00 AM 3.472222 38.25 7.871 6.45
1/13/2022 9:45:00 AM 3.35889 38.046 7.883 6.55
1/13/2022 10:00:00 AM 3.434444 38.182 7.888 6.85
1/13/2022 10:15:00 AM 3.472222 38.25 7.882 6.9
1/13/2022 10:30:00 AM 3.462779 38.233 7.886 7.2
1/13/2022 10:45:00 AM 3.245555 37.842 7.904 7.25
1/13/2022 11:00:00 AM 3.141666 37.655 7.921 7.35
1/13/2022 11:15:00 AM 3.056666 37.502 7.935 7.25
1/13/2022 11:30:00 AM 3.047223 37.485 7.948 7.2
1/13/2022 11:45:00 AM 2.952777 37.315 7.96 7.15
1/13/2022 12:00:00 PM 3.028333 37.451 7.96 7.6
1/13/2022 12:15:00 PM 3.009444 37.417 7.965 7.95
1/13/2022 12:30:00 PM 2.943334 37.298 7.97 8.3
1/13/2022 12:45:00 PM 2.981112 37.366 7.972 8.6
1/13/2022 1:00:00 PM 3.009444 37.417 7.97 8.95
1/13/2022 1:15:00 PM 2.971666 37.349 7.969 9.85
1/13/2022 1:30:00 PM 3.037777 37.468 7.973 9.55
1/13/2022 1:45:00 PM 3.028333 37.451 7.972 9.8
1/13/2022 2:00:00 PM 3.000001 37.4 7.97 10.1
1/13/2022 2:15:00 PM 2.990555 37.383 7.973 10.15
1/13/2022 2:30:00 PM 2.924444 37.264 7.976 10.45
1/13/2022 2:45:00 PM 2.867777 37.162 7.981 10.75
1/13/2022 3:00:00 PM 2.877223 37.179 7.976 11.1
1/13/2022 3:15:00 PM 2.933888 37.281 7.969 11.6
1/13/2022 3:30:00 PM 2.896112 37.213 7.953 13.35
1/13/2022 3:45:00 PM 2.915001 37.247 7.928 16.8
1/13/2022 4:00:00 PM 3.094444 37.57 7.902 22.5
1/13/2022 4:15:00 PM 3.217222 37.791 7.876 29.15
1/13/2022 4:30:00 PM 3.056666 37.502 7.862 35.85
1/13/2022 4:45:00 PM 3.094444 37.57 7.864 35.4
1/13/2022 5:00:00 PM 3.170001 37.706 7.857 33.1
1/13/2022 5:15:00 PM 3.217222 37.791 7.853 30.55
1/13/2022 5:30:00 PM 3.27389 37.893 7.853 27.9
1/13/2022 5:45:00 PM 3.179444 37.723 7.857 26.3
1/13/2022 6:00:00 PM 3.217222 37.791 7.857 25.2
1/13/2022 6:15:00 PM 3.151112 37.672 7.868 23.65
1/13/2022 6:30:00 PM 3.349444 38.029 7.861 22.35
1/13/2022 6:45:00 PM 3.321111 37.978 7.86 21.75
1/13/2022 7:00:00 PM 3.028333 37.451 7.865 19.7
1/13/2022 7:15:00 PM 2.830001 37.094 7.878 19.25
1/13/2022 7:30:00 PM 2.697777 36.856 7.888 19.55
1/13/2022 7:45:00 PM 2.697777 36.856 7.9 18.2
1/13/2022 8:00:00 PM 2.650556 36.771 7.904 17.75
1/13/2022 8:15:00 PM 2.546666 36.584 7.916 16.65
1/13/2022 8:30:00 PM 2.537223 36.567 7.925 17
1/13/2022 8:45:00 PM 2.471112 36.448 7.934 16.15
1/13/2022 9:00:00 PM 2.527777 36.55 7.931 18.1
1/13/2022 9:15:00 PM 2.489999 36.482 7.944 14.9
1/13/2022 9:30:00 PM 2.574999 36.635 7.942 14.15
1/13/2022 9:45:00 PM 2.593888 36.669 7.942 14.05
1/13/2022 10:00:00 PM 2.593888 36.669 7.945 13.85
1/13/2022 10:15:00 PM 2.546666 36.584 7.949 13.5
1/13/2022 10:30:00 PM 2.773334 36.992 7.944 13.55
1/13/2022 10:45:00 PM 2.735555 36.924 7.946 12.85
1/13/2022 11:00:00 PM 2.820555 37.077 7.946 12.55
1/13/2022 11:15:00 PM 2.858334 37.145 7.942 12.2
1/13/2022 11:30:00 PM 2.896112 37.213 7.942 12.1
1/14/2022 12:00:00 AM 2.650556 36.771 7.945 12.3
1/14/2022 12:15:00 AM 2.593888 36.669 7.948 12
1/14/2022 12:30:00 AM 2.622223 36.72 7.952 11.05
1/14/2022 12:45:00 AM 2.707223 36.873 7.945 11.25
1/14/2022 1:00:00 AM 2.669445 36.805 7.941 11.4
1/14/2022 1:15:00 AM 2.641112 36.754 7.939 11.6
1/14/2022 1:30:00 AM 2.650556 36.771 7.931 11.85
1/14/2022 1:45:00 AM 2.707223 36.873 7.931 11.5
1/14/2022 2:00:00 AM 2.688334 36.839 7.934 10.55
1/14/2022 2:15:00 AM 2.763888 36.975 7.927 10.1
1/14/2022 2:30:00 AM 2.867777 37.162 7.921 9.95
1/14/2022 2:45:00 AM 2.952777 37.315 7.906 9.45
1/14/2022 3:00:00 AM 2.886666 37.196 7.903 9.7
1/14/2022 3:15:00 AM 2.886666 37.196 7.904 9.25
1/14/2022 3:30:00 AM 2.773334 36.992 7.904 9.25
1/14/2022 3:45:00 AM 2.650556 36.771 7.91 9.15
1/14/2022 4:00:00 AM 2.848888 37.128 7.903 9.2
1/14/2022 4:15:00 AM 2.952777 37.315 7.889 8.9
1/14/2022 4:30:00 AM 3.066112 37.519 7.875 8.95
1/14/2022 4:45:00 AM 3.037777 37.468 7.879 8.5
1/14/2022 5:00:00 AM 2.924444 37.264 7.878 9.35
1/14/2022 5:15:00 AM 3.037777 37.468 7.881 8.25
1/14/2022 5:30:00 AM 3.094444 37.57 7.872 8.1
1/14/2022 5:45:00 AM 3.217222 37.791 7.86 7.95
1/14/2022 6:00:00 AM 3.302222 37.944 7.843 8.25
1/14/2022 6:15:00 AM 3.226666 37.808 7.847 7.8
1/14/2022 6:30:00 AM 3.151112 37.672 7.851 7.75
1/14/2022 6:45:00 AM 3.122777 37.621 7.853 7.7
1/14/2022 7:00:00 AM 3.349444 38.029 7.84 7.35
1/14/2022 7:15:00 AM 3.538333 38.369 7.82 7.45
1/14/2022 7:30:00 AM 3.736668 38.726 7.791 7.95
1/14/2022 7:45:00 AM 3.755555 38.76 7.79 7.2
1/14/2022 8:00:00 AM 3.944444 39.1 7.773 7.05
1/14/2022 8:15:00 AM 4.057778 39.304 7.755 6.85
1/14/2022 8:30:00 AM 4.152222 39.474 7.736 9.7
1/14/2022 8:45:00 AM 4.293889 39.729 7.72 9
1/14/2022 9:00:00 AM 4.482778 40.069 7.694 6.95
1/14/2022 9:15:00 AM 4.445 40.001 7.692 6.45
1/14/2022 9:30:00 AM 4.454445 40.018 7.694 6.45
1/14/2022 9:45:00 AM 4.53 40.154 7.687 6.35
1/14/2022 10:00:00 AM 4.615 40.307 7.683 6.15
1/14/2022 10:15:00 AM 4.728334 40.511 7.672 6.05
1/14/2022 10:30:00 AM 4.841667 40.715 7.659 6.15
1/14/2022 10:45:00 AM 4.879445 40.783 7.662 6.25
1/14/2022 11:00:00 AM 4.737778 40.528 7.678 5.65
1/14/2022 11:15:00 AM 4.68111 40.426 7.69 5.7
1/14/2022 11:30:00 AM 4.671667 40.409 7.704 5.75
1/14/2022 11:45:00 AM 4.737778 40.528 7.71 5.85
1/14/2022 12:00:00 PM 4.832223 40.698 7.704 5.9
1/14/2022 12:15:00 PM 4.907778 40.834 7.706 5.6
1/14/2022 12:30:00 PM 4.841667 40.715 7.715 5.6
1/14/2022 12:45:00 PM 4.898334 40.817 7.72 5.45
1/14/2022 1:00:00 PM 4.964445 40.936 7.722 5.4
1/14/2022 1:15:00 PM 4.983334 40.97 7.725 5.25
1/14/2022 1:30:00 PM 5.030556 41.055 7.728 5.3
1/14/2022 1:45:00 PM 5.049445 41.089 7.736 5.2
1/14/2022 2:00:00 PM 5.049445 41.089 7.742 5.3
1/14/2022 2:15:00 PM 4.964445 40.936 7.76 5.25
1/14/2022 2:30:00 PM 4.983334 40.97 7.766 5.1
1/14/2022 2:45:00 PM 4.992777 40.987 7.767 5.05
1/14/2022 3:00:00 PM 4.992777 40.987 7.77 5.2
1/14/2022 3:15:00 PM 5.02111 41.038 7.777 5.05
1/14/2022 3:30:00 PM 5.087223 41.157 7.767 5.55
1/14/2022 3:45:00 PM 4.983334 40.97 7.78 5.1
1/14/2022 4:00:00 PM 5.030556 41.055 7.778 5
1/14/2022 4:15:00 PM 5.115556 41.208 7.764 5.35
1/14/2022 4:30:00 PM 5.058888 41.106 7.776 5.25
1/14/2022 4:45:00 PM 5.068334 41.123 7.767 5
1/14/2022 5:00:00 PM 5.087223 41.157 7.762 4.95
1/14/2022 5:15:00 PM 5.191112 41.344 7.748 4.8
1/14/2022 5:30:00 PM 5.304445 41.548 7.725 4.75
1/14/2022 5:45:00 PM 5.351666 41.633 7.707 5
1/14/2022 6:00:00 PM 5.228888 41.412 7.71 4.95
1/14/2022 6:15:00 PM 5.143888 41.259 7.714 4.85
1/14/2022 6:30:00 PM 5.106112 41.191 7.711 4.8
1/14/2022 6:45:00 PM 5.039999 41.072 7.711 4.75
1/14/2022 7:00:00 PM 4.983334 40.97 7.72 4.7
1/14/2022 7:15:00 PM 4.954999 40.919 7.728 4.8
1/14/2022 7:30:00 PM 4.907778 40.834 7.739 5
1/14/2022 7:45:00 PM 4.841667 40.715 7.753 4.8
1/14/2022 8:00:00 PM 4.841667 40.715 7.76 4.75
1/14/2022 8:15:00 PM 4.747221 40.545 7.763 4.75
1/14/2022 8:30:00 PM 4.699999 40.46 7.769 4.7
1/14/2022 8:45:00 PM 4.615 40.307 7.78 4.8
1/14/2022 9:00:00 PM 4.605556 40.29 7.785 5.35
1/14/2022 9:15:00 PM 4.53 40.154 7.798 4.8
1/14/2022 9:30:00 PM 4.662221 40.392 7.787 4.8
1/14/2022 9:45:00 PM 4.85111 40.732 7.766 4.7
1/14/2022 10:00:00 PM 4.869999 40.766 7.755 4.7
1/14/2022 10:15:00 PM 4.869999 40.766 7.743 4.75
1/14/2022 10:30:00 PM 4.784999 40.613 7.749 4.9
1/14/2022 10:45:00 PM 4.605556 40.29 7.764 4.9
1/14/2022 11:00:00 PM 4.539445 40.171 7.778 5.25
1/14/2022 11:15:00 PM 4.558334 40.205 7.777 5.35
1/14/2022 11:30:00 PM 4.520556 40.137 7.781 4.85
1/15/2022 12:00:00 AM 4.558334 40.205 7.776 4.85
1/15/2022 12:15:00 AM 4.59611 40.273 7.762 4.95
1/15/2022 12:30:00 AM 4.426111 39.967 7.77 4.7
1/15/2022 12:45:00 AM 4.293889 39.729 7.777 4.7
1/15/2022 1:00:00 AM 4.218332 39.593 7.78 4.65
1/15/2022 1:15:00 AM 4.218332 39.593 7.777 4.65
1/15/2022 1:30:00 AM 4.152222 39.474 7.776 4.85
1/15/2022 1:45:00 AM 4.029444 39.253 7.785 4.7
1/15/2022 2:00:00 AM 3.906667 39.032 7.791 4.7
1/15/2022 2:15:00 AM 3.935 39.083 7.79 4.6
1/15/2022 2:30:00 AM 4.038889 39.27 7.776 4.65
1/15/2022 2:45:00 AM 4.048333 39.287 7.767 4.6
1/15/2022 3:00:00 AM 4.171111 39.508 7.752 4.65
1/15/2022 3:15:00 AM 4.284445 39.712 7.734 4.6
1/15/2022 3:30:00 AM 4.227778 39.61 7.725 4.65
1/15/2022 3:45:00 AM 4.038889 39.27 7.735 4.55
1/15/2022 4:00:00 AM 4.010557 39.219 7.735 4.55
1/15/2022 4:15:00 AM 3.972778 39.151 7.736 4.5
1/15/2022 4:30:00 AM 4.067222 39.321 7.727 4.55
1/15/2022 4:45:00 AM 4.067222 39.321 7.722 4.6
1/15/2022 5:00:00 AM 4.001111 39.202 7.717 4.85
1/15/2022 5:15:00 AM 3.802778 38.845 7.735 4.65
1/15/2022 5:30:00 AM 3.774444 38.794 7.738 4.7
1/15/2022 5:45:00 AM 3.840554 38.913 7.736 4.6
1/15/2022 6:00:00 AM 3.935 39.083 7.725 4.7
1/15/2022 6:15:00 AM 3.897222 39.015 7.724 4.55
1/15/2022 6:30:00 AM 3.897222 39.015 7.721 4.5
1/15/2022 6:45:00 AM 3.831111 38.896 7.722 4.55
1/15/2022 7:00:00 AM 3.746111 38.743 7.729 4.5
1/15/2022 7:15:00 AM 3.765 38.777 7.731 4.5
1/15/2022 7:30:00 AM 3.802778 38.845 7.724 4.5
1/15/2022 7:45:00 AM 3.746111 38.743 7.728 4.45
1/15/2022 8:00:00 AM 3.783889 38.811 7.724 4.4
1/15/2022 8:15:00 AM 3.925557 39.066 7.715 4.45
1/15/2022 8:30:00 AM 3.840554 38.913 7.72 4.35
1/15/2022 8:45:00 AM 3.897222 39.015 7.722 4.4
1/15/2022 9:00:00 AM 3.944444 39.1 7.721 4.35
1/15/2022 9:15:00 AM 3.821668 38.879 7.731 4.4
1/15/2022 9:30:00 AM 3.746111 38.743 7.749 4.25
1/15/2022 9:45:00 AM 3.821668 38.879 7.756 4.3
1/15/2022 10:00:00 AM 3.717778 38.692 7.774 4.25
1/15/2022 10:15:00 AM 3.708333 38.675 7.788 4.3
1/15/2022 10:30:00 AM 3.85 38.93 7.79 4.3
1/15/2022 10:45:00 AM 3.916111 39.049 7.797 4.2
1/15/2022 11:00:00 AM 3.963333 39.134 7.801 4.15
1/15/2022 11:15:00 AM 4.038889 39.27 7.804 4.2
1/15/2022 11:30:00 AM 4.02 39.236 7.811 4.15
1/15/2022 11:45:00 AM 3.859444 38.947 7.83 4.2
1/15/2022 12:00:00 PM 3.727222 38.709 7.855 4.2
1/15/2022 12:15:00 PM 3.689444 38.641 7.879 4.15
1/15/2022 12:30:00 PM 3.689444 38.641 7.89 4.15
1/15/2022 12:45:00 PM 3.774444 38.794 7.897 4.15
1/15/2022 1:00:00 PM 3.802778 38.845 7.897 4.15
1/15/2022 1:15:00 PM 3.963333 39.134 7.896 4.1
1/15/2022 1:30:00 PM 4.029444 39.253 7.888 4.2
1/15/2022 1:45:00 PM 3.982222 39.168 7.899 4.1
1/15/2022 2:00:00 PM 3.906667 39.032 7.907 4.15
1/15/2022 2:15:00 PM 3.906667 39.032 7.913 4.15
1/15/2022 2:30:00 PM 4.029444 39.253 7.91 4.1
1/15/2022 2:45:00 PM 4.114443 39.406 7.904 4.1
1/15/2022 3:00:00 PM 4.180556 39.525 7.897 4.35
1/15/2022 3:15:00 PM 4.105 39.389 7.909 4.15
1/15/2022 3:30:00 PM 4.161667 39.491 7.909 4.15
1/15/2022 3:45:00 PM 4.237222 39.627 7.902 4.05
1/15/2022 4:00:00 PM 4.350556 39.831 7.892 4.1
1/15/2022 4:15:00 PM 4.378889 39.882 7.888 4.1
1/15/2022 4:30:00 PM 4.378889 39.882 7.883 4.4
1/15/2022 4:45:00 PM 4.199443 39.559 7.902 4
1/15/2022 5:00:00 PM 4.142778 39.457 7.907 4.1
1/15/2022 5:15:00 PM 4.114443 39.406 7.904 4.1
1/15/2022 5:30:00 PM 4.057778 39.304 7.904 4
1/15/2022 5:45:00 PM 4.133333 39.44 7.895 4
1/15/2022 6:00:00 PM 4.265556 39.678 7.871 4.05
1/15/2022 6:15:00 PM 4.293889 39.729 7.862 4
1/15/2022 6:30:00 PM 4.331667 39.797 7.85 4.05
1/15/2022 6:45:00 PM 4.388332 39.899 7.833 4.3
1/15/2022 7:00:00 PM 4.218332 39.593 7.843 4.1
1/15/2022 7:15:00 PM 4.161667 39.491 7.851 4.05
1/15/2022 7:30:00 PM 4.180556 39.525 7.85 4.1
1/15/2022 7:45:00 PM 4.161667 39.491 7.854 4.05
1/15/2022 8:00:00 PM 4.180556 39.525 7.853 4.1
1/15/2022 8:15:00 PM 4.227778 39.61 7.846 4.1
1/15/2022 8:30:00 PM 4.076667 39.338 7.854 4.1
1/15/2022 8:45:00 PM 3.906667 39.032 7.872 4.1
1/15/2022 9:00:00 PM 3.963333 39.134 7.871 4.15
1/15/2022 9:15:00 PM 3.953889 39.117 7.871 4.1
1/15/2022 9:30:00 PM 3.963333 39.134 7.871 4.05
1/15/2022 9:45:00 PM 4.02 39.236 7.864 4.15
1/15/2022 10:00:00 PM 4.010557 39.219 7.861 4.15
1/15/2022 10:15:00 PM 3.831111 38.896 7.876 4.05
1/15/2022 10:30:00 PM 3.85 38.93 7.875 4.1
1/15/2022 10:45:00 PM 3.868889 38.964 7.878 4
1/15/2022 11:00:00 PM 3.897222 39.015 7.872 3.9
1/15/2022 11:15:00 PM 3.935 39.083 7.869 3.95
1/15/2022 11:30:00 PM 3.982222 39.168 7.86 4.1
1/16/2022 12:00:00 AM 3.812222 38.862 7.865 4
1/16/2022 12:15:00 AM 3.831111 38.896 7.864 3.95
1/16/2022 12:30:00 AM 3.812222 38.862 7.861 3.85
1/16/2022 12:45:00 AM 3.821668 38.879 7.855 3.9
1/16/2022 1:00:00 AM 3.859444 38.947 7.844 3.85
1/16/2022 1:15:00 AM 3.821668 38.879 7.84 3.85
1/16/2022 1:30:00 AM 3.746111 38.743 7.837 3.85
1/16/2022 1:45:00 AM 3.717778 38.692 7.839 3.85
1/16/2022 2:00:00 AM 3.765 38.777 7.83 3.8
1/16/2022 2:15:00 AM 3.765 38.777 7.822 3.8
1/16/2022 2:30:00 AM 3.812222 38.862 7.813 3.8
1/16/2022 2:45:00 AM 3.831111 38.896 7.798 4.1
1/16/2022 3:00:00 AM 3.708333 38.675 7.802 3.85
1/16/2022 3:15:00 AM 3.632779 38.539 7.806 3.9
1/16/2022 3:30:00 AM 3.642222 38.556 7.801 3.8
1/16/2022 3:45:00 AM 3.698889 38.658 7.792 3.8
1/16/2022 4:00:00 AM 3.746111 38.743 7.784 3.85
1/16/2022 4:15:00 AM 3.755555 38.76 7.774 3.85
1/16/2022 4:30:00 AM 3.651668 38.573 7.771 3.8
1/16/2022 4:45:00 AM 3.52889 38.352 7.781 3.85
1/16/2022 5:00:00 AM 3.52889 38.352 7.78 3.8
1/16/2022 5:15:00 AM 3.52889 38.352 7.776 3.75
1/16/2022 5:30:00 AM 3.557222 38.403 7.77 3.75
1/16/2022 5:45:00 AM 3.566666 38.42 7.767 3.8
1/16/2022 6:00:00 AM 3.604444 38.488 7.759 3.85
1/16/2022 6:15:00 AM 3.425 38.165 7.77 3.8
1/16/2022 6:30:00 AM 3.377779 38.08 7.778 3.85
1/16/2022 6:45:00 AM 3.434444 38.182 7.774 3.8
1/16/2022 7:00:00 AM 3.481666 38.267 7.771 3.85
1/16/2022 7:15:00 AM 3.519444 38.335 7.769 3.85
1/16/2022 7:30:00 AM 3.595 38.471 7.759 4.25
1/16/2022 7:45:00 AM 3.44389 38.199 7.769 4
1/16/2022 8:00:00 AM 3.35889 38.046 7.776 3.95
1/16/2022 8:15:00 AM 3.368333 38.063 7.773 4.2
1/16/2022 8:30:00 AM 3.27389 37.893 7.79 4.2
1/16/2022 8:45:00 AM 3.292777 37.927 7.791 4.05
1/16/2022 9:00:00 AM 3.387222 38.097 7.792 4
1/16/2022 9:15:00 AM 3.396666 38.114 7.795 4.1
1/16/2022 9:30:00 AM 3.396666 38.114 7.795 3.95
1/16/2022 9:45:00 AM 3.491111 38.284 7.799 4.45
1/16/2022 10:00:00 AM 3.44389 38.199 7.811 4.2
1/16/2022 10:15:00 AM 3.481666 38.267 7.819 4.25
1/16/2022 10:30:00 AM 3.613889 38.505 7.818 4.3
1/16/2022 10:45:00 AM 3.68 38.624 7.825 4.25
1/16/2022 11:00:00 AM 3.755555 38.76 7.823 4.55
1/16/2022 11:15:00 AM 3.613889 38.505 7.841 4.4
1/16/2022 11:30:00 AM 3.585555 38.454 7.851 4.45
1/16/2022 11:45:00 AM 3.632779 38.539 7.855 4.3
1/16/2022 12:00:00 PM 3.708333 38.675 7.857 4.45
1/16/2022 12:15:00 PM 3.765 38.777 7.862 5
1/16/2022 12:30:00 PM 3.802778 38.845 7.864 4.95
1/16/2022 12:45:00 PM 3.708333 38.675 7.878 5.55
1/16/2022 1:00:00 PM 3.689444 38.641 7.889 4.25
1/16/2022 1:15:00 PM 3.68 38.624 7.897 4.05
1/16/2022 1:30:00 PM 3.736668 38.726 7.896 4.1
1/16/2022 1:45:00 PM 3.746111 38.743 7.904 4.35
1/16/2022 2:00:00 PM 3.765 38.777 7.903 4.5
1/16/2022 2:15:00 PM 3.783889 38.811 7.9 4.3
1/16/2022 2:30:00 PM 3.651668 38.573 7.909 4.25
1/16/2022 2:45:00 PM 3.557222 38.403 7.931 4.2
1/16/2022 3:00:00 PM 3.604444 38.488 7.925 4
1/16/2022 3:15:00 PM 3.661111 38.59 7.927 4
1/16/2022 3:30:00 PM 3.717778 38.692 7.918 4.15
1/16/2022 3:45:00 PM 3.783889 38.811 7.903 4.3
1/16/2022 4:00:00 PM 3.698889 38.658 7.91 4.1
1/16/2022 4:15:00 PM 3.689444 38.641 7.91 4.25
1/16/2022 4:30:00 PM 3.765 38.777 7.893 4.15
1/16/2022 4:45:00 PM 3.812222 38.862 7.885 4.3
1/16/2022 5:00:00 PM 3.878333 38.981 7.871 4.45
1/16/2022 5:15:00 PM 3.935 39.083 7.86 4.8
1/16/2022 5:30:00 PM 3.859444 38.947 7.853 4.8
1/16/2022 5:45:00 PM 3.746111 38.743 7.861 4.85
1/16/2022 6:00:00 PM 3.774444 38.794 7.855 5.25
1/16/2022 6:15:00 PM 3.774444 38.794 7.861 5.4
1/16/2022 6:30:00 PM 3.793333 38.828 7.854 5.3
1/16/2022 6:45:00 PM 3.831111 38.896 7.85 5.5
1/16/2022 7:00:00 PM 3.887778 38.998 7.839 5.25
1/16/2022 7:15:00 PM 3.736668 38.726 7.848 5.05
1/16/2022 7:30:00 PM 3.736668 38.726 7.846 4.95
1/16/2022 7:45:00 PM 3.708333 38.675 7.854 4.8
1/16/2022 8:00:00 PM 3.689444 38.641 7.853 4.8
1/16/2022 8:15:00 PM 3.698889 38.658 7.855 4.75
1/16/2022 8:30:00 PM 3.68 38.624 7.858 4.65
1/16/2022 8:45:00 PM 3.595 38.471 7.865 4.5
1/16/2022 9:00:00 PM 3.670555 38.607 7.864 4.45
1/16/2022 9:15:00 PM 3.774444 38.794 7.86 4.35
1/16/2022 9:30:00 PM 3.897222 39.015 7.846 4.35
1/16/2022 9:45:00 PM 4.029444 39.253 7.83 4.35
1/16/2022 10:00:00 PM 4.133333 39.44 7.816 4.3
1/16/2022 10:15:00 PM 4.161667 39.491 7.801 4.4
1/16/2022 10:30:00 PM 4.057778 39.304 7.806 4.4
1/16/2022 10:45:00 PM 4.057778 39.304 7.811 4.45
1/16/2022 11:00:00 PM 4.02 39.236 7.811 4.45
1/16/2022 11:15:00 PM 4.057778 39.304 7.809 4.55
1/16/2022 11:30:00 PM 4.095556 39.372 7.801 4.55
1/17/2022 12:00:00 AM 4.105 39.389 7.795 7
1/17/2022 12:15:00 AM 4.123889 39.423 7.795 9.35
1/17/2022 12:30:00 AM 4.171111 39.508 7.792 6.4
1/17/2022 12:45:00 AM 4.237222 39.627 7.783 5.9
1/17/2022 1:00:00 AM 4.265556 39.678 7.776 5.7
1/17/2022 1:15:00 AM 4.001111 39.202 7.792 5.9
1/17/2022 1:30:00 AM 3.944444 39.1 7.799 7.25
1/17/2022 1:45:00 AM 3.972778 39.151 7.799 14.4
1/17/2022 2:00:00 AM 4.048333 39.287 7.792 9.5
1/17/2022 2:15:00 AM 4.048333 39.287 7.784 7
1/17/2022 2:30:00 AM 3.963333 39.134 7.787 6.4
1/17/2022 2:45:00 AM 3.916111 39.049 7.785 5.9
1/17/2022 3:00:00 AM 3.916111 39.049 7.778 6.3
1/17/2022 3:15:00 AM 3.670555 38.607 7.798 6
1/17/2022 3:30:00 AM 3.736668 38.726 7.794 6
1/17/2022 3:45:00 AM 3.85 38.93 7.777 5.55
1/17/2022 4:00:00 AM 3.765 38.777 7.766 5.3
1/17/2022 4:15:00 AM 3.557222 38.403 7.78 5.15
1/17/2022 4:30:00 AM 3.576111 38.437 7.771 5.1
1/17/2022 4:45:00 AM 3.302222 37.944 7.792 5
1/17/2022 5:00:00 AM 3.481666 38.267 7.783 4.9
1/17/2022 5:15:00 AM 3.585555 38.454 7.764 4.95
1/17/2022 5:30:00 AM 3.642222 38.556 7.752 4.75
1/17/2022 5:45:00 AM 3.661111 38.59 7.734 4.8
1/17/2022 6:00:00 AM 3.651668 38.573 7.724 4.75
1/17/2022 6:15:00 AM 3.68 38.624 7.721 4.7
1/17/2022 6:30:00 AM 3.698889 38.658 7.711 4.65
1/17/2022 6:45:00 AM 3.68 38.624 7.706 4.7
1/17/2022 7:00:00 AM 3.661111 38.59 7.701 4.65
1/17/2022 7:15:00 AM 3.746111 38.743 7.687 4.65
1/17/2022 7:30:00 AM 3.632779 38.539 7.693 4.55
1/17/2022 7:45:00 AM 3.689444 38.641 7.689 4.55
1/17/2022 8:00:00 AM 3.623333 38.522 7.687 4.5
1/17/2022 8:15:00 AM 3.642222 38.556 7.686 4.5
1/17/2022 8:30:00 AM 3.576111 38.437 7.686 4.5
1/17/2022 8:45:00 AM 3.170001 37.706 7.713 4.5
1/17/2022 9:00:00 AM 3.000001 37.4 7.729 4.45
1/17/2022 9:15:00 AM 2.716666 36.89 7.759 4.5
1/17/2022 9:30:00 AM 2.659999 36.788 7.774 4.5
1/17/2022 9:45:00 AM 2.707223 36.873 7.778 4.4
1/17/2022 10:00:00 AM 2.726112 36.907 7.78 4.4
1/17/2022 10:15:00 AM 2.678888 36.822 7.788 4.35
1/17/2022 10:30:00 AM 2.782777 37.009 7.788 4.45
1/17/2022 10:45:00 AM 2.659999 36.788 7.802 4.35
1/17/2022 11:00:00 AM 2.546666 36.584 7.818 4.35
1/17/2022 11:15:00 AM 2.423888 36.363 7.836 4.35
1/17/2022 11:30:00 AM 2.423888 36.363 7.847 4.3
1/17/2022 11:45:00 AM 2.480556 36.465 7.858 4.35
1/17/2022 12:00:00 PM 2.584445 36.652 7.861 4.4
1/17/2022 12:15:00 PM 2.556112 36.601 7.875 4.3
1/17/2022 12:30:00 PM 2.480556 36.465 7.888 4.35
1/17/2022 12:45:00 PM 2.508888 36.516 7.9 4.25
1/17/2022 1:00:00 PM 2.471112 36.448 7.91 4.25
1/17/2022 1:15:00 PM 2.584445 36.652 7.916 4.3
1/17/2022 1:30:00 PM 2.735555 36.924 7.911 4.35
1/17/2022 1:45:00 PM 2.905555 37.23 7.911 4.35
1/17/2022 2:00:00 PM 2.886666 37.196 7.916 4.5
1/17/2022 2:15:00 PM 2.867777 37.162 7.923 4.55
1/17/2022 2:30:00 PM 2.952777 37.315 7.921 4.65
1/17/2022 2:45:00 PM 2.924444 37.264 7.928 4.85
1/17/2022 3:00:00 PM 3.028333 37.451 7.925 5.15
1/17/2022 3:15:00 PM 3.056666 37.502 7.925 5.3
1/17/2022 3:30:00 PM 3.028333 37.451 7.931 5.55
1/17/2022 3:45:00 PM 3.018888 37.434 7.945 6.4
1/17/2022 4:00:00 PM 3.018888 37.434 7.944 6.65
1/17/2022 4:15:00 PM 3.075555 37.536 7.953 7.75
1/17/2022 4:30:00 PM 3.170001 37.706 7.939 7.45
1/17/2022 4:45:00 PM 3.179444 37.723 7.955 8
1/17/2022 5:00:00 PM 3.226666 37.808 7.949 8.1
1/17/2022 5:15:00 PM 2.952777 37.315 7.962 8.25
1/17/2022 5:30:00 PM 2.726112 36.907 7.984 8.7
1/17/2022 5:45:00 PM 2.707223 36.873 7.991 9.05
1/17/2022 6:00:00 PM 2.754445 36.958 7.991 10
1/17/2022 6:15:00 PM 2.773334 36.992 7.994 9.6
1/17/2022 6:30:00 PM 2.848888 37.128 7.994 10.65
1/17/2022 6:45:00 PM 2.886666 37.196 7.995 10.95
1/17/2022 7:00:00 PM 2.877223 37.179 8.001 11.2
1/17/2022 7:15:00 PM 2.877223 37.179 8.002 11.45
1/17/2022 7:30:00 PM 2.943334 37.298 7.997 11.35
1/17/2022 7:45:00 PM 2.971666 37.349 8.007 11.25
1/17/2022 8:00:00 PM 3.000001 37.4 8.008 11.55
1/17/2022 8:15:00 PM 3.018888 37.434 8.009 11.7
1/17/2022 8:30:00 PM 2.962223 37.332 8.016 11.85
1/17/2022 8:45:00 PM 2.971666 37.349 8.019 12.2
1/17/2022 9:00:00 PM 2.971666 37.349 8.001 11.7
1/17/2022 9:15:00 PM 2.981112 37.366 8.016 11.95
1/17/2022 9:30:00 PM 2.990555 37.383 8.014 12.05
1/17/2022 9:45:00 PM 3.113333 37.604 8.005 12.05
1/17/2022 10:00:00 PM 3.075555 37.536 8.001 12.2
1/17/2022 10:15:00 PM 3.018888 37.434 8.002 11.8
1/17/2022 10:30:00 PM 3.066112 37.519 7.995 12.5
1/17/2022 10:45:00 PM 3.094444 37.57 7.998 12
1/17/2022 11:00:00 PM 3.132222 37.638 7.99 12
1/17/2022 11:15:00 PM 3.113333 37.604 7.987 12.75
1/17/2022 11:30:00 PM 3.047223 37.485 7.984 12.2
1/18/2022 12:00:00 AM 3.018888 37.434 7.983 11.9
1/18/2022 12:15:00 AM 3.000001 37.4 7.986 11.55
1/18/2022 12:30:00 AM 3.037777 37.468 7.983 11.4
1/18/2022 12:45:00 AM 3.10389 37.587 7.973 11.15
1/18/2022 1:00:00 AM 3.141666 37.655 7.965 11.2
1/18/2022 1:15:00 AM 3.066112 37.519 7.963 10.95
1/18/2022 1:30:00 AM 3.10389 37.587 7.951 11.2
1/18/2022 1:45:00 AM 3.10389 37.587 7.952 10.7
1/18/2022 2:00:00 AM 3.094444 37.57 7.945 10.35
1/18/2022 2:15:00 AM 3.141666 37.655 7.935 10.3
1/18/2022 2:30:00 AM 3.198333 37.757 7.921 10.2
1/18/2022 2:45:00 AM 3.122777 37.621 7.918 9.95
1/18/2022 3:00:00 AM 3.028333 37.451 7.914 9.9
1/18/2022 3:15:00 AM 2.971666 37.349 7.916 9.45
1/18/2022 3:30:00 AM 2.924444 37.264 7.911 9.4
1/18/2022 3:45:00 AM 2.943334 37.298 7.906 9.25
1/18/2022 4:00:00 AM 3.009444 37.417 7.892 8.95
1/18/2022 4:15:00 AM 3.047223 37.485 7.883 8.85
1/18/2022 4:30:00 AM 2.981112 37.366 7.876 8.75
1/18/2022 4:45:00 AM 2.962223 37.332 7.876 8.6
1/18/2022 5:00:00 AM 2.962223 37.332 7.869 8.7
1/18/2022 5:15:00 AM 2.981112 37.366 7.862 8.4
1/18/2022 5:30:00 AM 3.009444 37.417 7.85 8
1/18/2022 5:45:00 AM 3.047223 37.485 7.841 7.9
1/18/2022 6:00:00 AM 2.990555 37.383 7.827 7.7
1/18/2022 6:15:00 AM 2.952777 37.315 7.829 7.5
1/18/2022 6:30:00 AM 2.952777 37.315 7.82 7.55
1/18/2022 6:45:00 AM 2.990555 37.383 7.815 7.45
1/18/2022 7:00:00 AM 3.056666 37.502 7.802 7.35
1/18/2022 7:15:00 AM 3.10389 37.587 7.788 7.5
1/18/2022 7:30:00 AM 3.113333 37.604 7.78 7.3
1/18/2022 7:45:00 AM 3.047223 37.485 7.78 7.35
1/18/2022 8:00:00 AM 3.094444 37.57 7.774 7.15
1/18/2022 8:15:00 AM 3.132222 37.638 7.763 7.1
1/18/2022 8:30:00 AM 3.198333 37.757 7.757 6.9
1/18/2022 8:45:00 AM 3.236112 37.825 7.75 6.95
1/18/2022 9:00:00 AM 3.311666 37.961 7.739 6.85
1/18/2022 9:15:00 AM 3.27389 37.893 7.739 6.8
1/18/2022 9:30:00 AM 3.264444 37.876 7.742 6.6
1/18/2022 9:45:00 AM 3.292777 37.927 7.742 6.75
1/18/2022 10:00:00 AM 3.330555 37.995 7.742 6.6
1/18/2022 10:15:00 AM 3.406111 38.131 7.739 6.55
1/18/2022 10:30:00 AM 3.491111 38.284 7.734 6.4
1/18/2022 10:45:00 AM 3.415555 38.148 7.745 6.45
1/18/2022 11:00:00 AM 3.35889 38.046 7.752 6.45
1/18/2022 11:15:00 AM 3.349444 38.029 7.763 6.35
1/18/2022 11:30:00 AM 3.396666 38.114 7.767 6.35
1/18/2022 11:45:00 AM 3.453333 38.216 7.77 6.35
1/18/2022 12:00:00 PM 3.566666 38.42 7.767 6.45
1/18/2022 12:15:00 PM 3.52889 38.352 7.783 6.35
1/18/2022 12:30:00 PM 3.44389 38.199 7.791 6.35
1/18/2022 12:45:00 PM 3.462779 38.233 7.806 6.45
1/18/2022 1:00:00 PM 3.472222 38.25 7.812 6.4
1/18/2022 1:15:00 PM 3.500555 38.301 7.825 6.25
1/18/2022 1:30:00 PM 3.538333 38.369 7.827 6.3
1/18/2022 1:45:00 PM 3.557222 38.403 7.837 6.3
1/18/2022 2:00:00 PM 3.44389 38.199 7.848 6.35
1/18/2022 2:15:00 PM 3.415555 38.148 7.858 6.5
1/18/2022 2:30:00 PM 3.44389 38.199 7.864 6.55
1/18/2022 2:45:00 PM 3.44389 38.199 7.867 6.6
1/18/2022 3:00:00 PM 3.500555 38.301 7.867 6.75
1/18/2022 3:15:00 PM 3.576111 38.437 7.865 7.05
1/18/2022 3:30:00 PM 3.51 38.318 7.875 7
1/18/2022 3:45:00 PM 3.481666 38.267 7.881 7.1
1/18/2022 4:00:00 PM 3.519444 38.335 7.882 7.25
1/18/2022 4:15:00 PM 3.604444 38.488 7.879 7.4
1/18/2022 4:30:00 PM 3.698889 38.658 7.869 7.45
1/18/2022 4:45:00 PM 3.727222 38.709 7.871 7.5
1/18/2022 5:00:00 PM 3.717778 38.692 7.869 7.5
1/18/2022 5:15:00 PM 3.670555 38.607 7.875 7.55
1/18/2022 5:30:00 PM 3.736668 38.726 7.876 7.5
1/18/2022 5:45:00 PM 3.840554 38.913 7.869 7.4
1/18/2022 6:00:00 PM 3.982222 39.168 7.858 7.4
1/18/2022 6:15:00 PM 4.067222 39.321 7.853 7.25
1/18/2022 6:30:00 PM 4.105 39.389 7.84 7.25
1/18/2022 6:45:00 PM 3.944444 39.1 7.855 7.15
1/18/2022 7:00:00 PM 4.010557 39.219 7.854 7.15
1/18/2022 7:15:00 PM 4.038889 39.27 7.848 7.05
1/18/2022 7:30:00 PM 3.887778 38.998 7.858 7.05
1/18/2022 7:45:00 PM 3.765 38.777 7.876 6.85
1/18/2022 8:00:00 PM 3.783889 38.811 7.882 6.8
1/18/2022 8:15:00 PM 3.698889 38.658 7.89 6.8
1/18/2022 8:30:00 PM 3.661111 38.59 7.896 6.75
1/18/2022 8:45:00 PM 3.604444 38.488 7.903 6.8
1/18/2022 9:00:00 PM 3.68 38.624 7.904 6.9
1/18/2022 9:15:00 PM 3.746111 38.743 7.904 6.8
1/18/2022 9:30:00 PM 3.689444 38.641 7.906 6.7
1/18/2022 9:45:00 PM 3.774444 38.794 7.903 6.75
1/18/2022 10:00:00 PM 3.698889 38.658 7.913 6.65
1/18/2022 10:15:00 PM 3.717778 38.692 7.918 6.6
1/18/2022 10:30:00 PM 3.689444 38.641 7.923 6.6
1/18/2022 10:45:00 PM 3.661111 38.59 7.931 6.5
1/18/2022 11:00:00 PM 3.670555 38.607 7.937 6.45
1/18/2022 11:15:00 PM 3.651668 38.573 7.937 6.65
1/18/2022 11:30:00 PM 3.557222 38.403 7.953 6.3
1/19/2022 12:00:00 AM 3.755555 38.76 7.938 6.2
1/19/2022 12:15:00 AM 3.840554 38.913 7.935 6
1/19/2022 12:30:00 AM 3.812222 38.862 7.928 5.95
1/19/2022 12:45:00 AM 3.821668 38.879 7.925 5.9
1/19/2022 1:00:00 AM 3.708333 38.675 7.927 5.9
1/19/2022 1:15:00 AM 3.727222 38.709 7.928 5.8
1/19/2022 1:30:00 AM 3.651668 38.573 7.921 5.85
1/19/2022 1:45:00 AM 3.434444 38.182 7.935 5.75
1/19/2022 2:00:00 AM 3.434444 38.182 7.937 5.65
1/19/2022 2:15:00 AM 3.500555 38.301 7.924 5.65
1/19/2022 2:30:00 AM 3.415555 38.148 7.911 5.7
1/19/2022 2:45:00 AM 3.245555 37.842 7.924 5.55
1/19/2022 3:00:00 AM 3.387222 38.097 7.913 5.6
1/19/2022 3:15:00 AM 3.434444 38.182 7.902 5.45
1/19/2022 3:30:00 AM 3.434444 38.182 7.888 5.4
1/19/2022 3:45:00 AM 3.52889 38.352 7.871 5.35
1/19/2022 4:00:00 AM 3.415555 38.148 7.869 5.25
1/19/2022 4:15:00 AM 3.302222 37.944 7.867 5.25
1/19/2022 4:30:00 AM 3.349444 38.029 7.857 5.3
1/19/2022 4:45:00 AM 3.415555 38.148 7.841 5.3
1/19/2022 5:00:00 AM 3.519444 38.335 7.823 5.3
1/19/2022 5:15:00 AM 3.547779 38.386 7.806 5.35
1/19/2022 5:30:00 AM 3.491111 38.284 7.799 5.25
1/19/2022 5:45:00 AM 3.434444 38.182 7.791 5.2
1/19/2022 6:00:00 AM 3.434444 38.182 7.785 5.1
1/19/2022 6:15:00 AM 3.481666 38.267 7.776 5.65
1/19/2022 6:30:00 AM 3.44389 38.199 7.769 5.1
1/19/2022 6:45:00 AM 3.27389 37.893 7.777 7.3
1/19/2022 7:00:00 AM 3.292777 37.927 7.767 5.75
1/19/2022 7:15:00 AM 3.160555 37.689 7.774 5.05
1/19/2022 7:30:00 AM 3.245555 37.842 7.764 4.75
1/19/2022 7:45:00 AM 3.755555 38.76 7.749 4.7
1/19/2022 8:00:00 AM 6.031666 42.857 7.486 4.7
1/19/2022 8:15:00 AM 7.920556 46.257 7.486 4.7
1/19/2022 8:30:00 AM 9.12 48.416 7.483 4.7
1/19/2022 8:45:00 AM 10.03611 50.065 7.449 4.75
1/19/2022 9:00:00 AM 10.63111 51.136 7.395 4.75
1/19/2022 9:15:00 AM 11.05611 51.901 7.349 4.75
1/19/2022 9:30:00 AM 8.968889 48.144 8.043 4.7
1/19/2022 9:45:00 AM 5.502777 41.905 8.154 4.7
1/19/2022 10:00:00 AM 4.350556 39.831 8.24 4.7
1/19/2022 10:15:00 AM 3.897222 39.015 8.285 4.7
1/19/2022 10:30:00 AM 3.538333 38.369 8.322 4.7
1/19/2022 10:45:00 AM 3.44389 38.199 8.34 4.7
1/19/2022 11:00:00 AM 3.396666 38.114 8.345 4.75
1/19/2022 11:15:00 AM 3.302222 37.944 8.359 4.7
1/19/2022 11:30:00 AM 3.434444 38.182 8.359 4.7
1/19/2022 11:45:00 AM 3.51 38.318 8.354 4.7
1/19/2022 12:00:00 PM 3.462779 38.233 8.358 4.7
1/19/2022 12:15:00 PM 3.462779 38.233 8.362 4.7
1/19/2022 12:30:00 PM 3.387222 38.097 8.372 4.7
1/19/2022 12:45:00 PM 3.264444 37.876 8.385 4.7
1/19/2022 1:00:00 PM 3.311666 37.961 8.393 4.7
1/19/2022 1:15:00 PM 3.311666 37.961 8.394 4.7
1/19/2022 1:30:00 PM 3.340001 38.012 8.393 4.7
1/19/2022 1:45:00 PM 3.302222 37.944 8.401 4.7
1/19/2022 2:00:00 PM 3.170001 37.706 8.414 4.7
1/19/2022 2:15:00 PM 3.075555 37.536 7.84 5.15
1/19/2022 2:30:00 PM 3.10389 37.587 7.848 5.1
1/19/2022 2:45:00 PM 3.18889 37.74 7.843 5.25
1/19/2022 3:00:00 PM 3.217222 37.791 7.844 5.35
1/19/2022 3:15:00 PM 3.151112 37.672 7.853 5.3
1/19/2022 3:30:00 PM 3.217222 37.791 7.85 5.4
1/19/2022 3:45:00 PM 3.264444 37.876 7.841 5.65
1/19/2022 4:00:00 PM 3.18889 37.74 7.844 5.35
1/19/2022 4:15:00 PM 3.35889 38.046 7.836 5.35
1/19/2022 4:30:00 PM 3.330555 37.995 7.833 5.3
1/19/2022 4:45:00 PM 3.340001 38.012 7.833 5.3
1/19/2022 5:00:00 PM 3.283333 37.91 7.839 5.15
1/19/2022 5:15:00 PM 3.170001 37.706 7.844 5.2
1/19/2022 5:30:00 PM 3.066112 37.519 7.853 5.3
1/19/2022 5:45:00 PM 3.160555 37.689 7.848 5.15
1/19/2022 6:00:00 PM 3.27389 37.893 7.83 5.05
1/19/2022 6:15:00 PM 3.377779 38.08 7.826 5.05
1/19/2022 6:30:00 PM 3.179444 37.723 7.826 4.95
1/19/2022 6:45:00 PM 2.707223 36.873 7.848 5
1/19/2022 7:00:00 PM 2.593888 36.669 7.854 5.05
1/19/2022 7:15:00 PM 2.603334 36.686 7.857 4.85
1/19/2022 7:30:00 PM 2.773334 36.992 7.841 4.8
1/19/2022 7:45:00 PM 2.763888 36.975 7.844 4.75
1/19/2022 8:00:00 PM 2.745001 36.941 7.837 4.7
1/19/2022 8:15:00 PM 2.716666 36.89 7.836 4.65
1/19/2022 8:30:00 PM 2.735555 36.924 7.83 4.85
1/19/2022 8:45:00 PM 2.612777 36.703 7.837 4.95
1/19/2022 9:00:00 PM 2.697777 36.856 7.822 4.7
1/19/2022 9:15:00 PM 2.754445 36.958 7.825 4.7
1/19/2022 9:30:00 PM 2.915001 37.247 7.812 4.55
1/19/2022 9:45:00 PM 2.981112 37.366 7.804 4.5
1/19/2022 10:00:00 PM 2.971666 37.349 7.801 4.45
1/19/2022 10:15:00 PM 2.952777 37.315 7.794 4.55
1/19/2022 10:30:00 PM 2.990555 37.383 7.787 4.55
1/19/2022 10:45:00 PM 3.018888 37.434 7.785 4.55
1/19/2022 11:00:00 PM 3.037777 37.468 7.784 4.5
1/19/2022 11:15:00 PM 2.952777 37.315 7.785 4.55
1/19/2022 11:30:00 PM 2.905555 37.23 7.785 4.5
1/20/2022 12:00:00 AM 2.952777 37.315 7.771 4.5
1/20/2022 12:15:00 AM 2.933888 37.281 7.77 4.55
1/20/2022 12:30:00 AM 2.905555 37.23 7.752 4.55
1/20/2022 12:45:00 AM 2.886666 37.196 7.755 4.55
1/20/2022 1:00:00 AM 2.877223 37.179 7.745 4.6
1/20/2022 1:15:00 AM 2.943334 37.298 7.734 4.4
1/20/2022 1:30:00 AM 3.000001 37.4 7.711 4.5
1/20/2022 1:45:00 AM 3.217222 37.791 7.687 4.4
1/20/2022 2:00:00 AM 3.44389 38.199 7.657 4.4
1/20/2022 2:15:00 AM 3.481666 38.267 7.626 4.4
1/20/2022 2:30:00 AM 3.330555 37.995 7.616 4.35
1/20/2022 2:45:00 AM 3.132222 37.638 7.613 4.45
1/20/2022 3:00:00 AM 3.066112 37.519 7.602 4.5
1/20/2022 3:15:00 AM 3.009444 37.417 7.598 4.4
1/20/2022 3:30:00 AM 3.085001 37.553 7.592 4.35
1/20/2022 3:45:00 AM 3.236112 37.825 7.567 4.3
1/20/2022 4:00:00 AM 3.141666 37.655 7.549 4.35
1/20/2022 4:15:00 AM 2.735555 36.924 7.542 4.35
1/20/2022 4:30:00 AM 2.38611 36.295 7.547 4.25
1/20/2022 4:45:00 AM 2.178334 35.921 7.542 4.3
1/20/2022 5:00:00 AM 2.206667 35.972 7.536 4.2
1/20/2022 5:15:00 AM 2.187778 35.938 7.518 4.3
1/20/2022 5:30:00 AM 2.178334 35.921 7.501 4.3
1/20/2022 5:45:00 AM 2.225556 36.006 7.493 4.2
1/20/2022 6:00:00 AM 2.471112 36.448 7.462 4.15
1/20/2022 6:15:00 AM 2.546666 36.584 7.444 4.35
1/20/2022 6:30:00 AM 2.603334 36.686 7.423 4.15
1/20/2022 6:45:00 AM 2.726112 36.907 7.405 4.1
1/20/2022 7:00:00 AM 2.877223 37.179 7.379 4.2
1/20/2022 7:15:00 AM 3.028333 37.451 7.351 4.25
1/20/2022 7:30:00 AM 3.170001 37.706 7.326 4.6
1/20/2022 7:45:00 AM 3.236112 37.825 7.301 4.95
1/20/2022 8:00:00 AM 3.094444 37.57 7.3 4.4
1/20/2022 8:15:00 AM 3.10389 37.587 7.291 4.4
1/20/2022 8:30:00 AM 3.151112 37.672 7.277 4.45
1/20/2022 8:45:00 AM 3.245555 37.842 7.265 4.35
1/20/2022 9:00:00 AM 3.226666 37.808 7.256 4.2
1/20/2022 9:15:00 AM 3.245555 37.842 7.252 4.05
1/20/2022 9:30:00 AM 3.217222 37.791 7.251 4.15
1/20/2022 9:45:00 AM 3.122777 37.621 7.258 4.1
1/20/2022 10:00:00 AM 3.132222 37.638 7.259 4.1
1/20/2022 10:15:00 AM 3.141666 37.655 7.26 4.05
1/20/2022 10:30:00 AM 3.226666 37.808 7.258 4
1/20/2022 10:45:00 AM 3.264444 37.876 7.26 4.25
1/20/2022 11:00:00 AM 3.27389 37.893 7.262 5.45
1/20/2022 11:15:00 AM 3.113333 37.604 7.286 4.8
1/20/2022 11:30:00 AM 3.113333 37.604 7.298 4.75
1/20/2022 11:45:00 AM 3.141666 37.655 7.305 4.4
1/20/2022 12:00:00 PM 3.245555 37.842 7.305 4.4
1/20/2022 12:15:00 PM 3.245555 37.842 7.308 4.6
1/20/2022 12:30:00 PM 3.207777 37.774 7.318 4.35
1/20/2022 12:45:00 PM 3.10389 37.587 7.335 4.2
1/20/2022 1:00:00 PM 3.047223 37.485 7.353 4.05
1/20/2022 1:15:00 PM 3.10389 37.587 7.364 4.15
1/20/2022 1:30:00 PM 3.170001 37.706 7.367 4.3
1/20/2022 1:45:00 PM 3.236112 37.825 7.371 4.7
1/20/2022 2:00:00 PM 3.321111 37.978 7.371 4.3
1/20/2022 2:15:00 PM 3.377779 38.08 7.368 4.25
1/20/2022 2:30:00 PM 3.283333 37.91 7.384 4.1
1/20/2022 2:45:00 PM 3.311666 37.961 7.392 4.45
1/20/2022 3:00:00 PM 3.406111 38.131 7.393 4.5
1/20/2022 3:15:00 PM 3.415555 38.148 7.4 4.15
1/20/2022 3:30:00 PM 3.425 38.165 7.405 4.15
1/20/2022 3:45:00 PM 3.425 38.165 7.41 6.75
1/20/2022 4:00:00 PM 3.321111 37.978 7.868 6.6
1/20/2022 4:15:00 PM 3.27389 37.893 7.882 6.7
1/20/2022 4:30:00 PM 3.330555 37.995 7.883 5.4
1/20/2022 4:45:00 PM 3.396666 38.114 7.886 5.2
1/20/2022 5:00:00 PM 3.51 38.318 7.876 8.35
1/20/2022 5:15:00 PM 3.585555 38.454 7.869 4.95
1/20/2022 5:30:00 PM 3.51 38.318 7.867 4.7
1/20/2022 5:45:00 PM 3.406111 38.131 7.881 5.15
1/20/2022 6:00:00 PM 3.462779 38.233 7.872 4.75
1/20/2022 6:15:00 PM 3.500555 38.301 7.874 4.75
1/20/2022 6:30:00 PM 3.519444 38.335 7.867 4.75
1/20/2022 6:45:00 PM 3.566666 38.42 7.858 4.55
1/20/2022 7:00:00 PM 3.491111 38.284 7.851 5.25
1/20/2022 7:15:00 PM 3.51 38.318 7.865 4.4
1/20/2022 7:30:00 PM 3.632779 38.539 7.864 4.8
1/20/2022 7:45:00 PM 3.698889 38.658 7.864 4.85
1/20/2022 8:00:00 PM 3.736668 38.726 7.861 4.75
1/20/2022 8:15:00 PM 3.727222 38.709 7.858 4.7
1/20/2022 8:30:00 PM 3.642222 38.556 7.867 5.35
1/20/2022 8:45:00 PM 3.547779 38.386 7.882 6.15
1/20/2022 9:00:00 PM 3.519444 38.335 7.892 5.6
1/20/2022 9:15:00 PM 3.52889 38.352 7.902 4.85
1/20/2022 9:30:00 PM 3.538333 38.369 7.904 5.1
1/20/2022 9:45:00 PM 3.566666 38.42 7.904 4.55
1/20/2022 10:00:00 PM 3.613889 38.505 7.903 4.7
1/20/2022 10:15:00 PM 3.623333 38.522 7.897 5
1/20/2022 10:30:00 PM 3.538333 38.369 7.911 4.85
1/20/2022 10:45:00 PM 3.519444 38.335 7.927 4.55
1/20/2022 11:00:00 PM 3.52889 38.352 7.925 4.5
1/20/2022 11:15:00 PM 3.557222 38.403 7.923 4.4
1/20/2022 11:30:00 PM 3.585555 38.454 7.92 4.45
1/21/2022 12:00:00 AM 3.51 38.318 7.918 4.4
1/21/2022 12:15:00 AM 3.396666 38.114 7.931 4.3
1/21/2022 12:30:00 AM 3.35889 38.046 7.931 4.3
1/21/2022 12:45:00 AM 3.340001 38.012 7.928 4.25
1/21/2022 1:00:00 AM 3.340001 38.012 7.921 4.25
1/21/2022 1:15:00 AM 3.349444 38.029 7.913 4.3
1/21/2022 1:30:00 AM 3.321111 37.978 7.899 4.4
1/21/2022 1:45:00 AM 3.207777 37.774 7.904 4.3
1/21/2022 2:00:00 AM 3.179444 37.723 7.896 4.4
1/21/2022 2:15:00 AM 3.132222 37.638 7.885 4.35
1/21/2022 2:30:00 AM 3.132222 37.638 7.872 4.3
1/21/2022 2:45:00 AM 3.056666 37.502 7.871 4.3
1/21/2022 3:00:00 AM 3.066112 37.519 7.855 4.55
1/21/2022 3:15:00 AM 2.877223 37.179 7.867 4.3
1/21/2022 3:30:00 AM 2.782777 37.009 7.865 4.4
1/21/2022 3:45:00 AM 2.811112 37.06 7.86 4.3
1/21/2022 4:00:00 AM 2.820555 37.077 7.848 4.3
1/21/2022 4:15:00 AM 2.820555 37.077 7.836 4.35
1/21/2022 4:30:00 AM 2.867777 37.162 7.809 4.25
1/21/2022 4:45:00 AM 2.745001 36.941 7.816 4.45
1/21/2022 5:00:00 AM 2.659999 36.788 7.813 4.5
1/21/2022 5:15:00 AM 2.697777 36.856 7.801 5.15
1/21/2022 5:30:00 AM 2.716666 36.89 7.79 4.8
1/21/2022 5:45:00 AM 2.745001 36.941 7.78 5.1
1/21/2022 6:00:00 AM 2.820555 37.077 7.763 5.85
1/21/2022 6:15:00 AM 2.754445 36.958 7.759 6.55
1/21/2022 6:30:00 AM 2.546666 36.584 7.766 6.55
1/21/2022 6:45:00 AM 2.508888 36.516 7.767 5.6
1/21/2022 7:00:00 AM 2.574999 36.635 7.76 7.15
1/21/2022 7:15:00 AM 2.603334 36.686 7.752 8.55
1/21/2022 7:30:00 AM 2.641112 36.754 7.741 7.85
1/21/2022 7:45:00 AM 2.659999 36.788 7.941 7.4
1/21/2022 8:00:00 AM 2.489999 36.482 7.946 5.45
1/21/2022 8:15:00 AM 2.471112 36.448 7.946 5.05
1/21/2022 8:30:00 AM 2.480556 36.465 7.945 4.95
1/21/2022 8:45:00 AM 1.753332 35.156 7.96 4.95
1/21/2022 9:00:00 AM 1.583333 34.85 7.969 5
1/21/2022 9:15:00 AM 1.536111 34.765 7.981 4.95
1/21/2022 9:30:00 AM 1.545556 34.782 8.039 5
1/21/2022 9:45:00 AM 2.924444 37.264 8.043 4.95
1/21/2022 10:00:00 AM 5.927777 42.67 7.819 4.95
1/21/2022 10:15:00 AM 8.355 47.039 7.582 4.95
1/21/2022 10:30:00 AM 4.841667 40.715 8.21 4.95
1/21/2022 10:45:00 AM 3.491111 38.284 8.281 4.95
1/21/2022 11:00:00 AM 3.000001 37.4 8.319 5
1/21/2022 11:15:00 AM 2.650556 36.771 8.357 4.95
1/21/2022 11:30:00 AM 2.508888 36.516 8.345 5
1/21/2022 11:45:00 AM 2.508888 36.516 8.271 4.95
1/21/2022 12:00:00 PM 2.603334 36.686 8.375 4.95
1/21/2022 12:15:00 PM 2.612777 36.703 8.382 5
1/21/2022 12:30:00 PM 2.697777 36.856 8.373 4.95
1/21/2022 12:45:00 PM 2.565556 36.618 8.38 4.95
1/21/2022 1:00:00 PM 2.565556 36.618 8.385 4.95
1/21/2022 1:15:00 PM 2.574999 36.635 8.389 4.95
1/21/2022 1:30:00 PM 2.612777 36.703 8.386 4.95
1/21/2022 1:45:00 PM 2.716666 36.89 8.386 4.95
1/21/2022 2:00:00 PM 2.830001 37.094 8.375 4.95
1/21/2022 2:15:00 PM 2.848888 37.128 8.368 4.95
1/21/2022 2:30:00 PM 2.735555 36.924 8.378 4.95
1/21/2022 2:45:00 PM 2.754445 36.958 8.378 4.55
1/21/2022 3:00:00 PM 2.848888 37.128 8.372 4.55
1/21/2022 3:15:00 PM 2.896112 37.213 8.368 4.5
1/21/2022 3:30:00 PM 2.933888 37.281 8.361 4.35
1/21/2022 3:45:00 PM 3.009444 37.417 8.351 4.55
1/21/2022 4:00:00 PM 2.858334 37.145 8.361 4.25
1/21/2022 4:15:00 PM 2.877223 37.179 8.362 4.25
1/21/2022 4:30:00 PM 2.943334 37.298 8.347 4.3
1/21/2022 4:45:00 PM 2.962223 37.332 8.34 4.25
1/21/2022 5:00:00 PM 3.009444 37.417 8.337 4.2
1/21/2022 5:15:00 PM 3.085001 37.553 8.326 4.2
1/21/2022 5:30:00 PM 2.990555 37.383 8.33 4.15
1/21/2022 5:45:00 PM 2.886666 37.196 8.337 4.1
1/21/2022 6:00:00 PM 2.933888 37.281 8.327 4.1
1/21/2022 6:15:00 PM 2.943334 37.298 8.322 4
1/21/2022 6:30:00 PM 2.981112 37.366 8.316 4
1/21/2022 6:45:00 PM 2.971666 37.349 8.309 4
1/21/2022 7:00:00 PM 2.981112 37.366 8.299 4.05
1/21/2022 7:15:00 PM 2.839444 37.111 8.31 4
1/21/2022 7:30:00 PM 2.896112 37.213 8.301 4
1/21/2022 7:45:00 PM 2.924444 37.264 8.299 3.95
1/21/2022 8:00:00 PM 2.981112 37.366 8.291 3.9
1/21/2022 8:15:00 PM 3.047223 37.485 8.281 3.9
1/21/2022 8:30:00 PM 3.094444 37.57 8.274 3.9
1/21/2022 8:45:00 PM 2.905555 37.23 8.281 3.85
1/21/2022 9:00:00 PM 2.915001 37.247 8.277 3.9
1/21/2022 9:15:00 PM 2.905555 37.23 8.28 3.8
1/21/2022 9:30:00 PM 2.886666 37.196 8.278 3.8
1/21/2022 9:45:00 PM 2.896112 37.213 8.275 3.85
1/21/2022 10:00:00 PM 2.924444 37.264 8.27 3.8
1/21/2022 10:15:00 PM 2.848888 37.128 8.267 3.8
1/21/2022 10:30:00 PM 2.773334 36.992 8.274 3.75
1/21/2022 10:45:00 PM 2.801666 37.043 8.277 3.75
1/21/2022 11:00:00 PM 2.820555 37.077 8.273 3.7
1/21/2022 11:15:00 PM 2.820555 37.077 8.273 3.7
1/21/2022 11:30:00 PM 2.839444 37.111 8.273 3.65
1/22/2022 12:00:00 AM 2.697777 36.856 8.274 3.7
1/22/2022 12:15:00 AM 2.678888 36.822 8.282 3.6
1/22/2022 12:30:00 AM 2.707223 36.873 8.278 3.6
1/22/2022 12:45:00 AM 2.726112 36.907 8.271 3.6
1/22/2022 1:00:00 AM 2.792223 37.026 8.263 3.6
1/22/2022 1:15:00 AM 2.848888 37.128 8.253 3.6
1/22/2022 1:30:00 AM 2.830001 37.094 8.24 3.6
1/22/2022 1:45:00 AM 2.697777 36.856 8.249 3.6
1/22/2022 2:00:00 AM 2.697777 36.856 8.243 3.55
1/22/2022 2:15:00 AM 2.716666 36.89 8.233 3.5
1/22/2022 2:30:00 AM 2.716666 36.89 8.221 3.55
1/22/2022 2:45:00 AM 2.726112 36.907 8.208 3.55
1/22/2022 3:00:00 AM 2.745001 36.941 8.186 3.6
1/22/2022 3:15:00 AM 2.593888 36.669 8.189 3.6
1/22/2022 3:30:00 AM 2.565556 36.618 8.182 3.7
1/22/2022 3:45:00 AM 2.574999 36.635 8.172 3.8
1/22/2022 4:00:00 AM 2.565556 36.618 8.162 3.8
1/22/2022 4:15:00 AM 2.584445 36.652 8.152 3.85
1/22/2022 4:30:00 AM 2.603334 36.686 8.137 3.95
1/22/2022 4:45:00 AM 2.433334 36.38 8.142 3.95
1/22/2022 5:00:00 AM 2.338888 36.21 8.14 4
1/22/2022 5:15:00 AM 2.357778 36.244 8.134 4.15
1/22/2022 5:30:00 AM 2.376667 36.278 8.121 4.1
1/22/2022 5:45:00 AM 2.38611 36.295 8.112 4.05
1/22/2022 6:00:00 AM 2.404999 36.329 8.096 4.1
1/22/2022 6:15:00 AM 2.291667 36.125 8.093 4.05
1/22/2022 6:30:00 AM 2.178334 35.921 8.095 3.95
1/22/2022 6:45:00 AM 2.159445 35.887 8.089 4
1/22/2022 7:00:00 AM 2.197223 35.955 8.081 3.85
1/22/2022 7:15:00 AM 2.21611 35.989 8.071 3.75
1/22/2022 7:30:00 AM 2.291667 36.125 8.057 3.7
1/22/2022 7:45:00 AM 2.30111 36.142 8.047 3.7
1/22/2022 8:00:00 AM 2.21611 35.989 8.049 3.65
1/22/2022 8:15:00 AM 2.178334 35.921 8.044 3.6
1/22/2022 8:30:00 AM 2.206667 35.972 8.036 3.55
1/22/2022 8:45:00 AM 2.244445 36.04 8.028 3.6
1/22/2022 9:00:00 AM 2.319999 36.176 8.018 3.6
1/22/2022 9:15:00 AM 2.338888 36.21 8.018 3.55
1/22/2022 9:30:00 AM 2.329445 36.193 8.016 3.55
1/22/2022 9:45:00 AM 2.253888 36.057 8.023 3.6
1/22/2022 10:00:00 AM 2.30111 36.142 8.025 3.6
1/22/2022 10:15:00 AM 2.319999 36.176 8.023 3.55
1/22/2022 10:30:00 AM 2.367223 36.261 8.03 3.55
1/22/2022 10:45:00 AM 2.461667 36.431 8.039 3.6
1/22/2022 11:00:00 AM 2.574999 36.635 8.036 3.55
1/22/2022 11:15:00 AM 2.527777 36.55 8.05 3.55
1/22/2022 11:30:00 AM 2.612777 36.703 8.057 3.55
1/22/2022 11:45:00 AM 2.688334 36.839 8.06 3.55
1/22/2022 12:00:00 PM 2.811112 37.06 8.057 3.5
1/22/2022 12:15:00 PM 2.830001 37.094 8.07 3.5
1/22/2022 12:30:00 PM 2.735555 36.924 8.084 3.5
1/22/2022 12:45:00 PM 2.612777 36.703 8.106 3.55
1/22/2022 1:00:00 PM 2.433334 36.38 8.141 3.55
1/22/2022 1:15:00 PM 2.367223 36.261 8.159 3.5
1/22/2022 1:30:00 PM 2.423888 36.363 8.169 3.45
1/22/2022 1:45:00 PM 2.461667 36.431 8.187 3.65
1/22/2022 2:00:00 PM 2.565556 36.618 8.19 3.45
1/22/2022 2:15:00 PM 2.659999 36.788 8.193 3.4
1/22/2022 2:30:00 PM 2.735555 36.924 8.196 3.45
1/22/2022 2:45:00 PM 2.631666 36.737 8.21 3.45
1/22/2022 3:00:00 PM 2.716666 36.89 8.208 3.4
1/22/2022 3:15:00 PM 2.763888 36.975 8.217 3.45
1/22/2022 3:30:00 PM 2.773334 36.992 8.225 3.35
1/22/2022 3:45:00 PM 2.801666 37.043 8.225 3.35
1/22/2022 4:00:00 PM 2.886666 37.196 8.221 3.45
1/22/2022 4:15:00 PM 2.839444 37.111 8.231 3.35
1/22/2022 4:30:00 PM 2.933888 37.281 8.222 3.3
1/22/2022 4:45:00 PM 2.990555 37.383 8.222 3.3
1/22/2022 5:00:00 PM 3.047223 37.485 8.215 3.35
1/22/2022 5:15:00 PM 2.962223 37.332 8.219 3.25
1/22/2022 5:30:00 PM 2.933888 37.281 8.224 3.25
1/22/2022 5:45:00 PM 2.773334 36.992 8.235 3.3
1/22/2022 6:00:00 PM 2.811112 37.06 8.238 3.25
1/22/2022 6:15:00 PM 2.848888 37.128 8.243 3.25
1/22/2022 6:30:00 PM 2.867777 37.162 8.235 3.3
1/22/2022 6:45:00 PM 2.867777 37.162 8.232 3.25
1/22/2022 7:00:00 PM 2.782777 37.009 8.235 3.25
1/22/2022 7:15:00 PM 2.688334 36.839 8.232 3.25
1/22/2022 7:30:00 PM 2.631666 36.737 8.239 3.25
1/22/2022 7:45:00 PM 2.650556 36.771 8.249 3.25
1/22/2022 8:00:00 PM 2.678888 36.822 8.246 3.25
1/22/2022 8:15:00 PM 2.716666 36.89 8.242 3.25
1/22/2022 8:30:00 PM 2.877223 37.179 8.229 3.25
1/22/2022 8:45:00 PM 2.981112 37.366 8.217 3.25
1/22/2022 9:00:00 PM 2.896112 37.213 8.212 3.3
1/22/2022 9:15:00 PM 2.858334 37.145 8.226 3.25
1/22/2022 9:30:00 PM 2.830001 37.094 8.231 3.25
1/22/2022 9:45:00 PM 2.933888 37.281 8.228 3.2
1/22/2022 10:00:00 PM 3.000001 37.4 8.218 3.25
1/22/2022 10:15:00 PM 3.056666 37.502 8.212 3.3
1/22/2022 10:30:00 PM 3.056666 37.502 8.204 3.3
1/22/2022 10:45:00 PM 2.886666 37.196 8.226 3.3
1/22/2022 11:00:00 PM 2.915001 37.247 8.229 3.3
1/22/2022 11:15:00 PM 2.943334 37.298 8.231 3.25
1/22/2022 11:30:00 PM 2.962223 37.332 8.232 3.25
1/23/2022 12:00:00 AM 2.905555 37.23 8.225 3.35
1/23/2022 12:15:00 AM 2.763888 36.975 8.253 3.25
1/23/2022 12:30:00 AM 2.848888 37.128 8.253 3.25
1/23/2022 12:45:00 AM 2.924444 37.264 8.249 3.2
1/23/2022 1:00:00 AM 3.028333 37.451 8.239 3.2
1/23/2022 1:15:00 AM 3.056666 37.502 8.233 3.2
1/23/2022 1:30:00 AM 2.971666 37.349 8.231 3.25
1/23/2022 1:45:00 AM 2.716666 36.89 8.254 3.2
1/23/2022 2:00:00 AM 2.603334 36.686 8.273 3.2
1/23/2022 2:15:00 AM 2.612777 36.703 8.273 3.2
1/23/2022 2:30:00 AM 2.574999 36.635 8.275 3.15
1/23/2022 2:45:00 AM 2.518334 36.533 8.274 3.2
1/23/2022 3:00:00 AM 2.499445 36.499 8.267 3.2
1/23/2022 3:15:00 AM 2.433334 36.38 8.267 3.2
1/23/2022 3:30:00 AM 2.348334 36.227 8.271 3.2
1/23/2022 3:45:00 AM 2.367223 36.261 8.257 3.2
1/23/2022 4:00:00 AM 2.367223 36.261 8.246 3.2
1/23/2022 4:15:00 AM 2.404999 36.329 8.235 3.2
1/23/2022 4:30:00 AM 2.480556 36.465 8.21 3.25
1/23/2022 4:45:00 AM 2.508888 36.516 8.201 3.2
1/23/2022 5:00:00 AM 2.357778 36.244 8.194 3.25
1/23/2022 5:15:00 AM 2.348334 36.227 8.186 3.25
1/23/2022 5:30:00 AM 2.38611 36.295 8.169 3.25
1/23/2022 5:45:00 AM 2.518334 36.533 8.154 3.2
1/23/2022 6:00:00 AM 2.641112 36.754 8.131 3.2
1/23/2022 6:15:00 AM 2.688334 36.839 8.116 3.3
1/23/2022 6:30:00 AM 2.726112 36.907 8.096 3.15
1/23/2022 6:45:00 AM 2.669445 36.805 8.091 3.1
1/23/2022 7:00:00 AM 2.716666 36.89 8.081 3.15
1/23/2022 7:15:00 AM 2.782777 37.009 8.063 3.2
1/23/2022 7:30:00 AM 2.801666 37.043 8.047 3.2
1/23/2022 7:45:00 AM 2.763888 36.975 8.039 3.2
1/23/2022 8:00:00 AM 2.773334 36.992 8.026 3.25
1/23/2022 8:15:00 AM 2.631666 36.737 8.028 3.2
1/23/2022 8:30:00 AM 2.669445 36.805 8.019 3.15
1/23/2022 8:45:00 AM 2.716666 36.89 8.014 3.15
1/23/2022 9:00:00 AM 2.763888 36.975 8.005 3.15
1/23/2022 9:15:00 AM 2.782777 37.009 8.005 3.3
1/23/2022 9:30:00 AM 2.811112 37.06 8.008 3.15
1/23/2022 9:45:00 AM 2.811112 37.06 8.011 3.15
1/23/2022 10:00:00 AM 2.782777 37.009 8.021 3.15
1/23/2022 10:15:00 AM 2.848888 37.128 8.035 3.15
1/23/2022 10:30:00 AM 2.990555 37.383 8.033 3.2
1/23/2022 10:45:00 AM 3.075555 37.536 8.039 3.15
1/23/2022 11:00:00 AM 3.207777 37.774 8.037 3.15
1/23/2022 11:15:00 AM 3.283333 37.91 8.037 3.2
1/23/2022 11:30:00 AM 3.151112 37.672 8.06 3.1
1/23/2022 11:45:00 AM 3.18889 37.74 8.074 3.15
1/23/2022 12:00:00 PM 3.141666 37.655 8.092 3.15
1/23/2022 12:15:00 PM 3.085001 37.553 8.116 3.05
1/23/2022 12:30:00 PM 3.132222 37.638 8.128 3.05
1/23/2022 12:45:00 PM 3.075555 37.536 8.147 3.1
1/23/2022 1:00:00 PM 2.915001 37.247 8.177 3.05
1/23/2022 1:15:00 PM 2.848888 37.128 8.204 3.1
1/23/2022 1:30:00 PM 2.952777 37.315 8.214 3.05
1/23/2022 1:45:00 PM 3.037777 37.468 8.219 3.05
1/23/2022 2:00:00 PM 3.018888 37.434 8.229 3.05
1/23/2022 2:15:00 PM 2.924444 37.264 8.249 3.1

These are provisional data and have not been subject to a quality assurance process, but rather are the raw data reported by the instrument.
H: value is above sensor operating range
L: value is below sensor operating range
Offline: station is not reporting data
NC: parameter is not collected at site

Data Availability & Limitations

Uncertainty and potential for error can be associated with environmental monitoring data. Provisional data have not been subject to a quality assurance process, but rather are the raw data reported by the instrument. Data users are cautioned to consider carefully the provisional nature of the information before using it for decisions that concern personal or public safety or the conduct of business that involves substantial monetary or operational consequences.

Approved data are currently available by request by emailing: srbc@srbc.net. Approved data have been subject to a quality assurance process to correct for equipment or fouling drift. Data recorded during equipment malfunctions have been removed.

View Historical Stations that have been discontinued.